Time;durP1;ratioP1;P1;durP2;ratioP2;P2;SDS_P1;SDS_P2;PMS_P1;PMS_P2;Temp;Humidity;BMP_temperature;BMP_pressure;BME280_temperature;BME280_humidity;BME280_pressure;Samples;Min_cycle;Max_cycle;Signal;HPM_P1;HPM_P2
2023/11/07 00:00:21;;;;;;;0.10;0.10;;;9.70;99.90;;;;;;5068958;28;20185;-80
2023/11/07 00:02:48;;;;;;;0.10;0.10;;;9.70;99.90;;;;;;5063724;28;20192;-79
2023/11/07 00:05:14;;;;;;;0.10;0.10;;;9.90;99.90;;;;;;5066818;28;20231;-79
2023/11/07 00:07:40;;;;;;;0.10;0.10;;;9.90;99.90;;;;;;5069798;28;20203;-79
2023/11/07 00:10:06;;;;;;;0.10;0.10;;;9.90;99.90;;;;;;5067916;28;20181;-79
2023/11/07 00:12:32;;;;;;;0.10;0.10;;;9.70;99.90;;;;;;5069901;28;20201;-79
2023/11/07 00:14:57;;;;;;;0.10;0.10;;;9.70;99.90;;;;;;5069647;28;20691;-79
2023/11/07 00:17:23;;;;;;;0.10;0.10;;;9.70;99.90;;;;;;5068877;28;20199;-80
2023/11/07 00:19:49;;;;;;;0.10;0.10;;;9.70;99.90;;;;;;5065327;28;20188;-79
2023/11/07 00:22:14;;;;;;;0.10;0.10;;;9.60;99.90;;;;;;5069356;28;20628;-79
2023/11/07 00:24:40;;;;;;;0.10;0.10;;;9.60;99.90;;;;;;5069261;28;20335;-79
2023/11/07 00:27:05;;;;;;;0.10;0.10;;;9.70;99.90;;;;;;5067485;28;20191;-80
2023/11/07 00:29:31;;;;;;;0.10;0.10;;;9.90;99.90;;;;;;5069312;28;20664;-79
2023/11/07 00:31:56;;;;;;;0.10;0.10;;;10.00;99.90;;;;;;5069475;28;20352;-79
2023/11/07 00:34:23;;;;;;;0.10;0.10;;;10.10;99.90;;;;;;5068290;28;20608;-79
2023/11/07 00:36:49;;;;;;;0.10;0.10;;;10.10;99.90;;;;;;5063424;28;20272;-80
2023/11/07 00:39:15;;;;;;;0.10;0.10;;;10.10;99.90;;;;;;5069297;28;20217;-80
2023/11/07 00:41:41;;;;;;;0.10;0.10;;;10.10;99.90;;;;;;5065226;28;20250;-79
2023/11/07 00:44:07;;;;;;;0.10;0.10;;;10.00;99.90;;;;;;5071365;28;20213;-79
2023/11/07 00:46:33;;;;;;;0.10;0.10;;;10.10;99.90;;;;;;5070003;28;20180;-79
2023/11/07 00:48:59;;;;;;;0.10;0.10;;;10.20;99.90;;;;;;5073320;28;20191;-79
2023/11/07 00:51:24;;;;;;;0.10;0.10;;;10.20;99.90;;;;;;5071884;28;20331;-79
2023/11/07 00:53:50;;;;;;;0.10;0.10;;;10.20;99.90;;;;;;5071061;28;20747;-79
2023/11/07 00:56:16;;;;;;;0.10;0.10;;;10.20;99.90;;;;;;5072303;28;20204;-80
2023/11/07 00:58:42;;;;;;;0.10;0.10;;;10.30;99.90;;;;;;5066387;28;20192;-79
2023/11/07 01:01:08;;;;;;;0.10;0.10;;;10.30;99.90;;;;;;5072706;28;20185;-79
2023/11/07 01:03:34;;;;;;;0.10;0.10;;;10.20;99.90;;;;;;5068969;28;20204;-79
2023/11/07 01:06:00;;;;;;;0.10;0.10;;;10.20;99.90;;;;;;5070663;28;21064;-79
2023/11/07 01:08:27;;;;;;;0.10;0.10;;;10.30;99.90;;;;;;5070655;28;20189;-80
2023/11/07 01:10:53;;;;;;;0.10;0.10;;;10.30;99.90;;;;;;5072201;28;20778;-79
2023/11/07 01:13:18;;;;;;;0.10;0.10;;;10.30;99.90;;;;;;5071310;28;20315;-79
2023/11/07 01:15:45;;;;;;;0.10;0.10;;;10.30;99.90;;;;;;5072113;28;20185;-79
2023/11/07 01:18:11;;;;;;;0.10;0.10;;;10.40;99.90;;;;;;5072131;28;20192;-78
2023/11/07 01:20:36;;;;;;;0.10;0.10;;;10.50;99.90;;;;;;5071310;28;20622;-79
2023/11/07 01:23:02;;;;;;;0.10;0.10;;;10.50;99.90;;;;;;5067238;28;20196;-79
2023/11/07 01:25:28;;;;;;;0.10;0.10;;;10.50;99.90;;;;;;5069409;28;20829;-80
2023/11/07 01:27:55;;;;;;;0.10;0.10;;;10.50;99.90;;;;;;5071699;28;20284;-80
2023/11/07 01:30:21;;;;;;;0.10;0.10;;;10.50;99.90;;;;;;5070324;28;20211;-79
2023/11/07 01:32:49;;;;;;;0.10;0.10;;;10.50;99.90;;;;;;5068672;28;20205;-79
2023/11/07 01:35:17;;;;;;;0.10;0.10;;;10.50;99.90;;;;;;5071352;28;20617;-79
2023/11/07 01:37:43;;;;;;;0.10;0.10;;;10.40;99.90;;;;;;5069823;28;20617;-79
2023/11/07 01:40:09;;;;;;;0.10;0.10;;;10.40;99.90;;;;;;5071605;28;20221;-79
2023/11/07 01:42:45;;;;;;;0.10;0.10;;;10.40;99.90;;;;;;5065430;28;20671;-79
2023/11/07 01:45:12;;;;;;;0.10;0.10;;;10.40;99.90;;;;;;5071532;28;20279;-79
2023/11/07 01:47:39;;;;;;;0.10;0.10;;;10.40;99.90;;;;;;5071396;28;20217;-79
2023/11/07 01:50:10;;;;;;;0.10;0.10;;;10.40;99.90;;;;;;5068293;28;20189;-79
2023/11/07 01:52:38;;;;;;;0.03;0.03;;;10.40;99.90;;;;;;5069173;28;20209;-79
2023/11/07 01:55:08;;;;;;;0.10;0.10;;;10.30;99.90;;;;;;5069392;28;20206;-79
2023/11/07 01:57:38;;;;;;;0.10;0.10;;;10.30;99.90;;;;;;5071118;28;20178;-79
2023/11/07 02:00:11;;;;;;;0.10;0.10;;;10.30;99.90;;;;;;5071104;28;20632;-79
2023/11/07 02:02:41;;;;;;;0.10;0.10;;;10.30;99.90;;;;;;5069391;28;20247;-79
2023/11/07 02:05:11;;;;;;;0.10;0.10;;;10.30;99.90;;;;;;5087007;28;20737;-79
2023/11/07 02:07:38;;;;;;;0.10;0.10;;;10.30;99.90;;;;;;5069968;28;20212;-79
2023/11/07 02:10:06;;;;;;;0.10;0.10;;;10.30;99.90;;;;;;5070614;28;20203;-79
2023/11/07 02:12:32;;;;;;;0.10;0.10;;;10.30;99.90;;;;;;5068165;28;20277;-80
2023/11/07 02:14:58;;;;;;;0.10;0.10;;;10.30;99.90;;;;;;5069173;28;20200;-79
2023/11/07 02:17:24;;;;;;;0.10;0.10;;;10.30;99.90;;;;;;5065551;28;20196;-79
2023/11/07 02:19:49;;;;;;;0.10;0.10;;;10.30;99.90;;;;;;5068541;28;20235;-79
2023/11/07 02:22:16;;;;;;;0.10;0.10;;;10.30;99.90;;;;;;5065665;28;20658;-79
2023/11/07 02:24:41;;;;;;;0.10;0.10;;;10.30;99.90;;;;;;5071516;28;20693;-79
2023/11/07 02:27:07;;;;;;;0.10;0.10;;;10.40;99.90;;;;;;5066611;28;20185;-79
2023/11/07 02:29:32;;;;;;;0.10;0.10;;;10.40;99.90;;;;;;5069481;28;20660;-79
2023/11/07 02:31:59;;;;;;;0.10;0.10;;;10.40;99.90;;;;;;5067195;28;20222;-79
2023/11/07 02:34:24;;;;;;;0.10;0.10;;;10.40;99.90;;;;;;5065193;28;20200;-78
2023/11/07 02:36:50;;;;;;;0.10;0.10;;;10.40;99.90;;;;;;5069705;28;20612;-79
2023/11/07 02:39:16;;;;;;;0.10;0.10;;;10.40;99.90;;;;;;5071069;28;20177;-80
2023/11/07 02:41:44;;;;;;;0.10;0.10;;;10.50;99.90;;;;;;5069554;28;20277;-80
2023/11/07 02:44:12;;;;;;;0.10;0.10;;;10.40;99.90;;;;;;5067273;28;20215;-80
2023/11/07 02:46:38;;;;;;;0.10;0.10;;;10.40;99.90;;;;;;5068920;28;20630;-80
2023/11/07 02:49:05;;;;;;;0.10;0.10;;;10.40;99.90;;;;;;5069740;28;20268;-80
2023/11/07 02:51:30;;;;;;;0.10;0.10;;;10.40;99.90;;;;;;5068801;28;20759;-80
2023/11/07 02:53:56;;;;;;;0.10;0.10;;;10.40;99.90;;;;;;5066738;28;20235;-80
2023/11/07 02:56:26;;;;;;;0.10;0.10;;;10.40;99.90;;;;;;5067805;28;20185;-80
2023/11/07 02:58:52;;;;;;;0.10;0.10;;;10.30;99.90;;;;;;5068410;28;20284;-79
2023/11/07 03:01:21;;;;;;;0.10;0.10;;;10.30;99.90;;;;;;5064870;28;20173;-80
2023/11/07 03:03:50;;;;;;;0.07;0.07;;;10.40;99.90;;;;;;5069071;28;20201;-80
2023/11/07 03:06:17;;;;;;;0.10;0.10;;;10.40;99.90;;;;;;5066431;28;20181;-80
2023/11/07 03:08:42;;;;;;;0.10;0.10;;;10.50;99.90;;;;;;5067580;28;20698;-80
2023/11/07 03:11:08;;;;;;;0.10;0.10;;;10.50;99.90;;;;;;5067055;28;20196;-80
2023/11/07 03:13:36;;;;;;;0.10;0.10;;;10.50;99.90;;;;;;5065442;28;20216;-81
2023/11/07 03:16:02;;;;;;;0.10;0.10;;;10.50;99.90;;;;;;5069258;28;20194;-80
2023/11/07 03:18:28;;;;;;;0.10;0.10;;;10.50;99.90;;;;;;5069178;28;21059;-80
2023/11/07 03:20:54;;;;;;;0.10;0.10;;;10.40;99.90;;;;;;5069612;28;20220;-80
2023/11/07 03:23:19;;;;;;;0.10;0.10;;;10.40;99.90;;;;;;5069001;28;20684;-80
2023/11/07 03:25:45;;;;;;;0.10;0.10;;;10.40;99.90;;;;;;5068985;28;20197;-80
2023/11/07 03:28:10;;;;;;;0.10;0.10;;;10.40;99.90;;;;;;5069643;28;20188;-79
2023/11/07 03:30:36;;;;;;;0.10;0.10;;;10.30;99.90;;;;;;5069024;28;20233;-80
2023/11/07 03:33:01;;;;;;;0.10;0.10;;;10.20;99.90;;;;;;5067625;28;20208;-80
2023/11/07 03:35:27;;;;;;;0.10;0.10;;;10.30;99.90;;;;;;5066433;28;20284;-80
2023/11/07 03:37:53;;;;;;;0.10;0.10;;;10.30;99.90;;;;;;5062824;28;20234;-80
2023/11/07 03:40:18;;;;;;;0.10;0.10;;;10.30;99.90;;;;;;5066404;28;20311;-79
2023/11/07 03:42:44;;;;;;;0.10;0.10;;;10.30;99.90;;;;;;5066797;28;20208;-80
2023/11/07 03:45:09;;;;;;;0.10;0.10;;;10.40;99.90;;;;;;5063911;28;20193;-80
2023/11/07 03:47:35;;;;;;;0.10;0.10;;;10.40;99.90;;;;;;5067825;28;20189;-80
2023/11/07 03:50:01;;;;;;;0.10;0.10;;;10.40;99.90;;;;;;5068917;28;20368;-80
2023/11/07 03:52:26;;;;;;;0.10;0.10;;;10.40;99.90;;;;;;5069072;28;20684;-79
2023/11/07 03:54:52;;;;;;;0.10;0.10;;;10.40;99.90;;;;;;5069164;28;20288;-80
2023/11/07 03:57:17;;;;;;;0.10;0.10;;;10.30;99.90;;;;;;5066291;28;20195;-80
2023/11/07 03:59:46;;;;;;;0.10;0.10;;;10.30;99.90;;;;;;5066652;28;20533;-79
2023/11/07 04:02:12;;;;;;;0.10;0.10;;;10.30;99.90;;;;;;5083913;28;20189;-79
2023/11/07 04:04:38;;;;;;;0.10;0.10;;;10.30;99.90;;;;;;5067763;28;20687;-80
2023/11/07 04:07:04;;;;;;;0.10;0.10;;;10.30;99.90;;;;;;5068484;28;20267;-80
2023/11/07 04:09:29;;;;;;;0.10;0.10;;;10.30;99.90;;;;;;5059481;28;20212;-80
2023/11/07 04:11:56;;;;;;;0.10;0.10;;;10.40;99.90;;;;;;5067135;28;20259;-80
2023/11/07 04:14:22;;;;;;;0.10;0.10;;;10.40;99.90;;;;;;5068565;28;20197;-79
2023/11/07 04:16:48;;;;;;;0.10;0.10;;;10.30;99.90;;;;;;5070250;28;20181;-80
2023/11/07 04:19:14;;;;;;;0.10;0.10;;;10.30;99.90;;;;;;5067006;28;20675;-79
2023/11/07 04:21:39;;;;;;;0.10;0.10;;;10.30;99.90;;;;;;5071377;28;20180;-80
2023/11/07 04:24:05;;;;;;;0.10;0.10;;;10.20;99.90;;;;;;5072869;28;20853;-80
2023/11/07 04:26:31;;;;;;;0.10;0.10;;;10.30;99.90;;;;;;5067917;28;20619;-80
2023/11/07 04:28:57;;;;;;;0.10;0.10;;;10.30;99.90;;;;;;5073341;28;20224;-80
2023/11/07 04:31:23;;;;;;;0.10;0.10;;;10.40;99.90;;;;;;5072269;28;20811;-80
2023/11/07 04:33:49;;;;;;;0.10;0.10;;;10.40;99.90;;;;;;5070165;28;20192;-80
2023/11/07 04:36:16;;;;;;;0.10;0.10;;;10.40;99.90;;;;;;5068816;28;20185;-79
2023/11/07 04:38:43;;;;;;;0.10;0.10;;;10.40;99.90;;;;;;5071582;28;20181;-80
2023/11/07 04:41:09;;;;;;;0.10;0.10;;;10.40;99.90;;;;;;5068360;28;20666;-80
2023/11/07 04:43:35;;;;;;;0.10;0.10;;;10.40;99.90;;;;;;5070716;28;20613;-80
2023/11/07 04:46:02;;;;;;;0.10;0.10;;;10.40;99.90;;;;;;5068699;28;20193;-80
2023/11/07 04:48:30;;;;;;;0.10;0.10;;;10.40;99.90;;;;;;5070365;28;20652;-80
2023/11/07 04:50:57;;;;;;;0.10;0.10;;;10.40;99.90;;;;;;5067588;28;20185;-80
2023/11/07 04:53:23;;;;;;;0.10;0.10;;;10.50;99.90;;;;;;5066094;28;20222;-80
2023/11/07 04:55:49;;;;;;;0.10;0.10;;;10.50;99.90;;;;;;5070135;28;20177;-80
2023/11/07 04:58:14;;;;;;;0.10;0.10;;;10.40;99.90;;;;;;5071714;28;20683;-80
2023/11/07 05:00:40;;;;;;;0.10;0.10;;;10.40;99.90;;;;;;5065169;28;21033;-80
2023/11/07 05:03:06;;;;;;;0.10;0.10;;;10.40;99.90;;;;;;5071826;28;20205;-80
2023/11/07 05:05:31;;;;;;;0.10;0.10;;;10.30;99.90;;;;;;5067168;28;20192;-80
2023/11/07 05:07:57;;;;;;;0.10;0.10;;;10.30;99.90;;;;;;5070328;28;20264;-79
2023/11/07 05:10:23;;;;;;;0.10;0.10;;;10.30;99.90;;;;;;5071137;28;20203;-80
2023/11/07 05:12:49;;;;;;;0.10;0.10;;;10.30;99.90;;;;;;5069405;28;20284;-80
2023/11/07 05:15:15;;;;;;;0.10;0.10;;;10.30;99.90;;;;;;5068617;28;20289;-79
2023/11/07 05:17:40;;;;;;;0.10;0.10;;;10.30;99.90;;;;;;5069587;28;20288;-80
2023/11/07 05:20:10;;;;;;;0.10;0.10;;;10.40;99.90;;;;;;5068987;28;20185;-79
2023/11/07 05:22:36;;;;;;;0.10;0.10;;;10.30;99.90;;;;;;5071173;28;20185;-80
2023/11/07 05:25:07;;;;;;;0.10;0.10;;;10.30;99.90;;;;;;5068493;28;20554;-80
2023/11/07 05:27:32;;;;;;;0.10;0.10;;;10.40;99.90;;;;;;5070488;28;20705;-79
2023/11/07 05:29:58;;;;;;;0.10;0.10;;;10.40;99.90;;;;;;5065419;28;20177;-80
2023/11/07 05:32:23;;;;;;;0.10;0.10;;;10.40;99.90;;;;;;5068133;28;20205;-80
2023/11/07 05:34:49;;;;;;;0.10;0.10;;;10.40;99.90;;;;;;5065212;28;20200;-80
2023/11/07 05:37:16;;;;;;;0.07;0.07;;;10.40;99.90;;;;;;5070941;28;20189;-80
2023/11/07 05:39:44;;;;;;;0.10;0.10;;;10.40;99.90;;;;;;5070662;28;20319;-80
2023/11/07 05:42:10;;;;;;;0.10;0.10;;;10.40;99.90;;;;;;5070491;28;21612;-80
2023/11/07 05:44:35;;;;;;;0.07;0.07;;;10.40;99.90;;;;;;5068594;28;20247;-80
2023/11/07 05:47:01;;;;;;;0.03;0.03;;;10.40;99.90;;;;;;5069317;28;20333;-80
2023/11/07 05:49:26;;;;;;;0.10;0.10;;;10.40;99.90;;;;;;5071183;28;20261;-80
2023/11/07 05:51:53;;;;;;;0.10;0.10;;;10.40;99.90;;;;;;5067154;28;20212;-80
2023/11/07 05:54:18;;;;;;;0.10;0.10;;;10.40;99.90;;;;;;5071117;28;20201;-80
2023/11/07 05:56:44;;;;;;;0.10;0.10;;;10.40;99.90;;;;;;5069340;28;20182;-80
2023/11/07 05:59:10;;;;;;;0.10;0.10;;;10.40;99.90;;;;;;5069947;28;20177;-79
2023/11/07 06:01:35;;;;;;;0.10;0.10;;;10.50;99.90;;;;;;5062789;28;20231;-80
2023/11/07 06:04:03;;;;;;;0.10;0.10;;;10.40;99.90;;;;;;5069325;28;20218;-80
2023/11/07 06:06:28;;;;;;;0.10;0.10;;;10.50;99.90;;;;;;5068749;28;20191;-80
2023/11/07 06:08:54;;;;;;;0.10;0.10;;;10.50;99.90;;;;;;5069579;28;20552;-79
2023/11/07 06:11:19;;;;;;;0.10;0.10;;;10.50;99.90;;;;;;5069664;28;20783;-80
2023/11/07 06:13:45;;;;;;;0.10;0.10;;;10.50;99.90;;;;;;5071262;28;20246;-79
2023/11/07 06:16:10;;;;;;;0.10;0.10;;;10.50;99.90;;;;;;5070880;28;20225;-80
2023/11/07 06:18:36;;;;;;;0.10;0.10;;;10.50;99.90;;;;;;5069930;28;20686;-80
2023/11/07 06:21:03;;;;;;;0.10;0.10;;;10.50;99.90;;;;;;5065429;28;20264;-79
2023/11/07 06:23:28;;;;;;;0.10;0.10;;;10.50;99.90;;;;;;5070620;28;20262;-80
2023/11/07 06:25:54;;;;;;;0.10;0.10;;;10.50;99.90;;;;;;5070327;28;20185;-80
2023/11/07 06:28:19;;;;;;;0.10;0.10;;;10.50;99.90;;;;;;5069364;28;20602;-80
2023/11/07 06:30:45;;;;;;;0.10;0.10;;;10.50;99.90;;;;;;5071442;28;20199;-80
2023/11/07 06:33:11;;;;;;;0.10;0.10;;;10.40;99.90;;;;;;5069478;28;20307;-80
2023/11/07 06:35:39;;;;;;;0.10;0.10;;;10.50;99.90;;;;;;5066138;28;20600;-80
2023/11/07 06:38:05;;;;;;;0.03;0.03;;;10.50;99.90;;;;;;5070739;28;20176;-80
2023/11/07 06:40:30;;;;;;;0.10;0.10;;;10.50;99.90;;;;;;5068361;28;20197;-80
2023/11/07 06:42:56;;;;;;;0.10;0.10;;;10.50;99.90;;;;;;5068744;28;20605;-79
2023/11/07 06:45:23;;;;;;;0.10;0.10;;;10.50;99.90;;;;;;5060077;28;20232;-80
2023/11/07 06:47:48;;;;;;;0.10;0.10;;;10.50;99.90;;;;;;5069893;28;20177;-80
2023/11/07 06:50:15;;;;;;;0.00;0.00;;;10.50;99.90;;;;;;5068897;28;20192;-80
2023/11/07 06:52:47;;;;;;;0.10;0.10;;;10.50;99.90;;;;;;5068336;28;20205;-80
2023/11/07 06:55:13;;;;;;;0.10;0.10;;;10.50;99.90;;;;;;5069634;28;20583;-80
2023/11/07 06:57:39;;;;;;;0.10;0.10;;;10.50;99.90;;;;;;5069526;28;20177;-80
2023/11/07 07:00:05;;;;;;;0.10;0.10;;;10.60;99.90;;;;;;5068078;28;20181;-80
2023/11/07 07:02:38;;;;;;;0.10;0.10;;;10.50;99.90;;;;;;5068249;28;20188;-80
2023/11/07 07:05:04;;;;;;;0.10;0.10;;;10.60;99.90;;;;;;5067845;28;20221;-80
2023/11/07 07:07:33;;;;;;;0.10;0.10;;;10.60;99.90;;;;;;5068087;28;20185;-80
2023/11/07 07:09:58;;;;;;;0.10;0.10;;;10.60;99.90;;;;;;5067019;28;20277;-80
2023/11/07 07:12:24;;;;;;;0.10;0.10;;;10.60;99.90;;;;;;5068884;28;20648;-80
2023/11/07 07:14:50;;;;;;;0.10;0.10;;;10.60;99.90;;;;;;5065867;28;20197;-80
2023/11/07 07:17:19;;;;;;;0.10;0.10;;;10.70;99.90;;;;;;5069275;28;20219;-80
2023/11/07 07:19:45;;;;;;;0.10;0.10;;;10.70;99.90;;;;;;5067851;28;20216;-80
2023/11/07 07:22:11;;;;;;;0.10;0.10;;;10.70;99.90;;;;;;5066242;28;20304;-80
2023/11/07 07:24:38;;;;;;;0.10;0.10;;;10.70;99.90;;;;;;5065111;28;20205;-80
2023/11/07 07:27:04;;;;;;;0.00;0.00;;;10.80;99.90;;;;;;5066532;28;20177;-80
2023/11/07 07:29:29;;;;;;;0.07;0.07;;;10.80;99.90;;;;;;5068667;28;20274;-80
2023/11/07 07:31:57;;;;;;;0.10;0.10;;;10.80;99.90;;;;;;5066106;28;20208;-79
2023/11/07 07:34:22;;;;;;;0.10;0.10;;;10.90;99.90;;;;;;5061863;28;20571;-79
2023/11/07 07:36:50;;;;;;;0.10;0.10;;;10.80;99.90;;;;;;5062890;28;20185;-79
2023/11/07 07:39:27;;;;;;;0.10;0.10;;;10.80;99.90;;;;;;5067986;28;20181;-79
2023/11/07 07:42:01;;;;;;;0.10;0.10;;;10.80;99.90;;;;;;5065916;28;20279;-79
2023/11/07 07:44:27;;;;;;;0.10;0.10;;;10.80;99.90;;;;;;5067265;28;20209;-80
2023/11/07 07:47:00;;;;;;;0.10;0.10;;;10.80;99.90;;;;;;5066484;28;20540;-80
2023/11/07 07:49:26;;;;;;;0.00;0.00;;;10.80;99.90;;;;;;5066201;28;20828;-79
2023/11/07 07:51:58;;;;;;;0.10;0.10;;;10.80;99.90;;;;;;5059777;28;20300;-80
2023/11/07 07:54:24;;;;;;;0.10;0.10;;;10.80;99.90;;;;;;5068512;28;20208;-80
2023/11/07 07:56:50;;;;;;;0.00;0.00;;;10.80;99.90;;;;;;5067215;28;20624;-79
2023/11/07 07:59:16;;;;;;;0.10;0.10;;;10.80;99.90;;;;;;5064845;28;20298;-79
2023/11/07 08:01:41;;;;;;;0.10;0.10;;;10.90;99.90;;;;;;5061888;28;20330;-80
2023/11/07 08:04:07;;;;;;;0.10;0.10;;;11.00;99.90;;;;;;5066064;28;20216;-79
2023/11/07 08:06:33;;;;;;;0.10;0.10;;;11.00;99.90;;;;;;5067394;28;20184;-80
2023/11/07 08:08:59;;;;;;;0.10;0.10;;;11.00;99.90;;;;;;5067814;28;20554;-79
2023/11/07 08:11:26;;;;;;;0.10;0.10;;;11.00;99.90;;;;;;5063618;28;20204;-79
2023/11/07 08:13:53;;;;;;;0.10;0.10;;;11.00;99.90;;;;;;5066890;28;20254;-79
2023/11/07 08:16:19;;;;;;;0.10;0.10;;;11.00;99.90;;;;;;5066239;28;20190;-79
2023/11/07 08:18:46;;;;;;;0.10;0.10;;;11.00;99.90;;;;;;5066789;28;20260;-80
2023/11/07 08:21:12;;;;;;;0.10;0.10;;;11.00;99.90;;;;;;5062192;28;21159;-80
2023/11/07 08:23:37;;;;;;;0.10;0.10;;;11.10;99.90;;;;;;5066991;28;20205;-79
2023/11/07 08:26:03;;;;;;;0.10;0.10;;;11.00;99.90;;;;;;5065307;28;20184;-80
2023/11/07 08:28:29;;;;;;;0.10;0.10;;;10.90;99.90;;;;;;5062586;28;20189;-80
2023/11/07 08:30:55;;;;;;;0.10;0.10;;;10.90;99.90;;;;;;5065756;28;20213;-79
2023/11/07 08:33:20;;;;;;;0.10;0.10;;;10.90;99.90;;;;;;5066951;28;20290;-79
2023/11/07 08:35:47;;;;;;;0.10;0.10;;;10.90;99.90;;;;;;5068107;28;20193;-78
2023/11/07 08:38:12;;;;;;;0.10;0.10;;;10.80;99.90;;;;;;5066463;28;20201;-79
2023/11/07 08:40:38;;;;;;;0.10;0.10;;;10.80;99.90;;;;;;5063736;28;20219;-79
2023/11/07 08:43:04;;;;;;;0.10;0.10;;;10.80;99.90;;;;;;5067133;28;20213;-79
2023/11/07 08:45:31;;;;;;;0.10;0.10;;;10.80;99.90;;;;;;5064574;28;20215;-79
2023/11/07 08:47:57;;;;;;;0.10;0.10;;;10.90;99.90;;;;;;5065460;28;20211;-79
2023/11/07 08:50:23;;;;;;;0.10;0.10;;;10.90;99.90;;;;;;5067960;28;20185;-79
2023/11/07 08:52:52;;;;;;;0.10;0.10;;;11.00;99.90;;;;;;5067771;28;20235;-79
2023/11/07 08:55:19;;;;;;;0.10;0.10;;;11.00;99.90;;;;;;5066098;28;20668;-79
2023/11/07 08:57:49;;;;;;;0.10;0.10;;;11.10;99.90;;;;;;5064294;28;20181;-79
2023/11/07 09:00:21;;;;;;;0.10;0.10;;;11.10;99.90;;;;;;5063439;28;20181;-80
2023/11/07 09:02:48;;;;;;;0.10;0.10;;;11.10;99.90;;;;;;5065156;28;20195;-79
2023/11/07 09:05:14;;;;;;;0.10;0.10;;;11.10;99.90;;;;;;5067681;28;20244;-79
2023/11/07 09:07:39;;;;;;;0.10;0.10;;;11.20;99.90;;;;;;5070601;28;20200;-79
2023/11/07 09:10:06;;;;;;;0.10;0.10;;;11.20;99.90;;;;;;5070137;28;20185;-79
2023/11/07 09:12:31;;;;;;;0.10;0.10;;;11.10;99.90;;;;;;5066472;28;20354;-79
2023/11/07 09:14:57;;;;;;;0.10;0.10;;;11.10;99.90;;;;;;5070315;28;20675;-79
2023/11/07 09:17:22;;;;;;;0.10;0.10;;;11.10;99.90;;;;;;5070261;28;20556;-79
2023/11/07 09:19:48;;;;;;;0.10;0.10;;;11.10;99.90;;;;;;5070204;28;20656;-79
2023/11/07 09:22:14;;;;;;;0.10;0.10;;;11.10;99.90;;;;;;5071964;28;20596;-79
2023/11/07 09:24:39;;;;;;;0.10;0.10;;;11.10;99.90;;;;;;5068946;28;20228;-79
2023/11/07 09:27:08;;;;;;;0.10;0.10;;;11.10;99.90;;;;;;5071357;28;20272;-79
2023/11/07 09:29:37;;;;;;;0.10;0.10;;;11.10;99.90;;;;;;5071771;28;20188;-79
2023/11/07 09:32:04;;;;;;;0.10;0.10;;;11.20;99.90;;;;;;5071099;28;20208;-79
2023/11/07 09:34:30;;;;;;;0.10;0.10;;;11.20;99.90;;;;;;5066328;28;20229;-79
2023/11/07 09:36:58;;;;;;;0.10;0.10;;;11.20;99.90;;;;;;5066456;28;20232;-79
2023/11/07 09:39:26;;;;;;;0.10;0.10;;;11.20;99.90;;;;;;5067131;28;20193;-79
2023/11/07 09:41:52;;;;;;;0.00;0.00;;;11.30;99.90;;;;;;5071584;28;20211;-79
2023/11/07 09:44:17;;;;;;;0.10;0.10;;;11.30;99.90;;;;;;5069134;28;20207;-79
2023/11/07 09:46:44;;;;;;;0.10;0.10;;;11.50;99.90;;;;;;5068857;28;20185;-79
2023/11/07 09:49:12;;;;;;;0.10;0.10;;;11.50;99.90;;;;;;5069901;28;20283;-79
2023/11/07 09:51:39;;;;;;;0.10;0.10;;;11.60;99.90;;;;;;5070082;28;20202;-79
2023/11/07 09:54:07;;;;;;;0.10;0.10;;;11.60;99.90;;;;;;5068903;28;20200;-79
2023/11/07 09:56:39;;;;;;;0.10;0.10;;;11.60;99.90;;;;;;5067970;28;20183;-79
2023/11/07 09:59:14;;;;;;;0.10;0.10;;;11.60;99.90;;;;;;5068135;28;20262;-79
2023/11/07 10:01:39;;;;;;;0.10;0.10;;;11.60;99.90;;;;;;5070215;28;20172;-79
2023/11/07 10:04:07;;;;;;;0.10;0.10;;;11.60;99.90;;;;;;5069022;28;20209;-79
2023/11/07 10:06:32;;;;;;;0.10;0.10;;;11.60;99.90;;;;;;5069600;28;20648;-79
2023/11/07 10:08:58;;;;;;;0.10;0.10;;;11.60;99.90;;;;;;5069612;28;20204;-79
2023/11/07 10:11:24;;;;;;;0.10;0.10;;;11.60;99.90;;;;;;5063406;28;20193;-79
2023/11/07 10:14:02;;;;;;;0.10;0.10;;;11.60;99.90;;;;;;5069927;28;20294;-79
2023/11/07 10:16:40;;;;;;;0.10;0.10;;;11.70;99.90;;;;;;5067823;28;20176;-79
2023/11/07 10:19:07;;;;;;;0.10;0.10;;;11.60;99.90;;;;;;5068076;28;20606;-79
2023/11/07 10:21:34;;;;;;;0.10;0.10;;;11.60;99.90;;;;;;5069851;28;20173;-79
2023/11/07 10:24:01;;;;;;;0.10;0.10;;;11.50;99.90;;;;;;5066047;28;20204;-79
2023/11/07 10:26:26;;;;;;;0.10;0.10;;;11.50;99.90;;;;;;5069244;28;20319;-79
2023/11/07 10:29:15;;;;;;;0.10;0.10;;;11.50;99.90;;;;;;5070239;28;20649;-79
2023/11/07 10:31:44;;;;;;;0.10;0.10;;;11.60;99.90;;;;;;5067328;28;20672;-79
2023/11/07 10:34:15;;;;;;;0.10;0.10;;;11.70;99.90;;;;;;5060720;28;20204;-79
2023/11/07 10:36:42;;;;;;;0.10;0.10;;;11.70;99.90;;;;;;5067864;28;20268;-79
2023/11/07 10:39:17;;;;;;;0.10;0.10;;;11.60;99.90;;;;;;5061000;28;20238;-80
2023/11/07 10:41:44;;;;;;;0.10;0.10;;;11.70;99.90;;;;;;5068518;28;20176;-79
2023/11/07 10:44:23;;;;;;;0.10;0.10;;;11.70;99.90;;;;;;5068433;28;20206;-79
2023/11/07 10:46:50;;;;;;;0.10;0.10;;;11.70;99.90;;;;;;5061422;28;20826;-80
2023/11/07 10:49:16;;;;;;;0.10;0.10;;;11.80;99.90;;;;;;5068521;28;20294;-79
2023/11/07 10:51:42;;;;;;;0.10;0.10;;;11.70;99.90;;;;;;5068793;28;20778;-79
2023/11/07 10:54:08;;;;;;;0.10;0.10;;;11.70;99.90;;;;;;5063307;28;20254;-79
2023/11/07 10:56:36;;;;;;;0.10;0.10;;;11.70;99.90;;;;;;5064471;28;20612;-79
2023/11/07 10:59:02;;;;;;;0.10;0.10;;;11.70;99.90;;;;;;5067663;28;20273;-79
2023/11/07 11:01:32;;;;;;;0.10;0.10;;;11.80;99.90;;;;;;5068165;28;20181;-80
2023/11/07 11:04:00;;;;;;;0.10;0.10;;;11.80;99.90;;;;;;5060470;28;20339;-77
2023/11/07 11:06:28;;;;;;;0.10;0.10;;;11.90;99.90;;;;;;5063800;28;20615;-79
2023/11/07 11:08:56;;;;;;;0.10;0.10;;;12.00;99.90;;;;;;5068025;28;20189;-78
2023/11/07 11:11:24;;;;;;;0.10;0.10;;;12.20;99.90;;;;;;5063198;28;20204;-78
2023/11/07 11:13:53;;;;;;;0.10;0.10;;;12.20;99.90;;;;;;5068399;28;20608;-78
2023/11/07 11:16:21;;;;;;;0.10;0.10;;;12.30;99.90;;;;;;5068016;28;20614;-77
2023/11/07 11:18:57;;;;;;;0.10;0.10;;;12.20;99.90;;;;;;5069693;28;20235;-77
2023/11/07 11:21:43;;;;;;;0.07;0.07;;;12.20;99.90;;;;;;5069235;28;20208;-78
2023/11/07 11:24:18;;;;;;;0.10;0.10;;;12.30;99.90;;;;;;5070036;28;20266;-78
2023/11/07 11:26:58;;;;;;;0.10;0.10;;;12.30;99.90;;;;;;5085486;28;20186;-78
2023/11/07 11:29:25;;;;;;;0.10;0.10;;;12.40;99.90;;;;;;5069725;28;20189;-78
2023/11/07 11:31:51;;;;;;;0.10;0.10;;;12.40;99.90;;;;;;5071951;28;20627;-78
2023/11/07 11:34:24;;;;;;;0.10;0.10;;;12.30;99.90;;;;;;5070047;28;20366;-78
2023/11/07 11:36:58;;;;;;;0.10;0.10;;;12.40;99.90;;;;;;5070122;28;20203;-78
2023/11/07 11:39:26;;;;;;;0.10;0.10;;;12.40;99.90;;;;;;5069750;28;20180;-78
2023/11/07 11:42:03;;;;;;;0.10;0.10;;;12.40;99.90;;;;;;5069624;28;20524;-78
2023/11/07 11:44:29;;;;;;;0.00;0.00;;;12.40;99.90;;;;;;5070301;28;20699;-78
2023/11/07 11:46:55;;;;;;;0.10;0.10;;;12.50;99.90;;;;;;5065401;28;20199;-78
2023/11/07 11:49:23;;;;;;;0.10;0.10;;;12.60;99.90;;;;;;5065666;28;20509;-77
2023/11/07 11:51:53;;;;;;;0.10;0.10;;;12.70;99.90;;;;;;5062706;28;20184;-77
2023/11/07 11:54:24;;;;;;;0.10;0.10;;;12.80;99.90;;;;;;5067759;28;20679;-78
2023/11/07 11:56:50;;;;;;;0.10;0.10;;;12.90;99.90;;;;;;5068315;28;20630;-78
2023/11/07 11:59:20;;;;;;;0.10;0.10;;;13.00;99.90;;;;;;5067585;28;20261;-78
2023/11/07 12:01:59;;;;;;;0.10;0.10;;;12.90;99.90;;;;;;5067274;28;20357;-79
2023/11/07 12:04:26;;;;;;;0.10;0.10;;;12.70;99.90;;;;;;5067850;28;20287;-79
2023/11/07 12:07:24;;;;;;;0.10;0.10;;;12.70;99.90;;;;;;5069037;28;20200;-79
2023/11/07 12:09:56;;;;;;;0.10;0.10;;;12.50;99.90;;;;;;5048368;28;20189;-80
2023/11/07 12:12:21;;;;;;;0.10;0.10;;;12.40;99.90;;;;;;5083046;28;20246;-80
2023/11/07 12:14:49;;;;;;;0.10;0.10;;;12.20;99.90;;;;;;5071037;28;20785;-81
2023/11/07 12:17:14;;;;;;;0.10;0.10;;;12.00;99.90;;;;;;5075887;28;20177;-80
2023/11/07 12:19:43;;;;;;;0.10;0.10;;;11.90;99.90;;;;;;5074606;28;20197;-78
2023/11/07 12:22:09;;;;;;;0.10;0.10;;;11.90;99.90;;;;;;5064185;28;20181;-78
2023/11/07 12:24:35;;;;;;;0.10;0.10;;;12.30;99.90;;;;;;5066707;28;20552;-78
2023/11/07 12:27:01;;;;;;;0.10;0.10;;;12.20;99.90;;;;;;5071672;28;20179;-78
2023/11/07 12:29:35;;;;;;;0.10;0.10;;;12.20;99.90;;;;;;5068355;28;20193;-79
2023/11/07 12:32:01;;;;;;;0.10;0.10;;;12.30;99.90;;;;;;5067511;28;20196;-79
2023/11/07 12:34:39;;;;;;;0.00;0.00;;;12.50;99.90;;;;;;5067070;28;20206;-79
2023/11/07 12:37:10;;;;;;;0.10;0.10;;;12.80;99.90;;;;;;5064462;28;20682;-79
2023/11/07 12:39:37;;;;;;;0.10;0.10;;;12.80;99.90;;;;;;5067090;28;20178;-80
2023/11/07 12:42:03;;;;;;;0.10;0.10;;;12.60;99.90;;;;;;5067607;28;20195;-79
2023/11/07 12:44:29;;;;;;;0.10;0.10;;;12.50;99.90;;;;;;5069170;28;20208;-80
2023/11/07 12:46:55;;;;;;;0.10;0.10;;;12.40;99.90;;;;;;5061650;28;20181;-79